Time;durP1;ratioP1;P1;durP2;ratioP2;P2;SDS_P1;SDS_P2;PMS_P1;PMS_P2;Temp;Humidity;BMP_temperature;BMP_pressure;BME280_temperature;BME280_humidity;BME280_pressure;Samples;Min_cycle;Max_cycle;Signal;HPM_P1;HPM_P2
2022/12/30 00:02:16;;;;;;;8.15;3.72;;;2.60;99.90;;;;;;5112249;28;20484;-62
2022/12/30 00:04:42;;;;;;;6.75;3.45;;;2.70;99.90;;;;;;5103439;28;20035;-62
2022/12/30 00:07:09;;;;;;;5.30;3.08;;;2.80;99.90;;;;;;5100177;28;20039;-62
2022/12/30 00:09:36;;;;;;;6.53;3.25;;;2.80;99.90;;;;;;5104503;28;20036;-62
2022/12/30 00:33:06;;;;;;;4.70;2.33;;;2.80;99.90;;;;;;5108449;28;20097;-62
2022/12/30 00:34:27;;;;;;;8.32;2.92;;;2.90;99.90;;;;;;5102147;28;20138;-62
2022/12/30 00:36:54;;;;;;;6.40;3.20;;;2.90;99.90;;;;;;5109672;28;20039;-62
2022/12/30 00:39:21;;;;;;;6.75;3.13;;;2.90;99.90;;;;;;5100056;28;20036;-62
2022/12/30 00:44:34;;;;;;;8.30;3.10;;;3.00;99.90;;;;;;5106473;28;20092;-62
2022/12/30 00:47:01;;;;;;;7.07;3.17;;;3.00;99.90;;;;;;5103524;28;20431;-62
2022/12/30 00:57:44;;;;;;;9.05;5.05;;;2.80;99.90;;;;;;5100105;28;20588;-62
2022/12/30 01:00:12;;;;;;;10.98;5.20;;;2.80;99.90;;;;;;5100073;28;20081;-62
2022/12/30 01:02:39;;;;;;;14.63;6.15;;;2.80;99.90;;;;;;5107240;28;20167;-62
2022/12/30 01:05:06;;;;;;;15.98;6.38;;;2.70;99.90;;;;;;5108415;28;20046;-62
2022/12/30 01:07:33;;;;;;;14.18;6.38;;;2.60;99.90;;;;;;5103030;28;20047;-62
2022/12/30 01:10:00;;;;;;;9.63;3.95;;;2.60;99.90;;;;;;5110658;28;20040;-62
2022/12/30 01:12:26;;;;;;;13.40;5.53;;;2.60;99.90;;;;;;5110941;28;20048;-62
2022/12/30 01:14:54;;;;;;;16.52;6.38;;;2.60;99.90;;;;;;5103591;28;20040;-62
2022/12/30 01:17:24;;;;;;;11.05;5.00;;;2.70;99.90;;;;;;5101723;28;20126;-62
2022/12/30 01:19:51;;;;;;;7.15;3.72;;;2.70;99.90;;;;;;5111322;28;20036;-63
2022/12/30 01:22:18;;;;;;;7.93;3.22;;;2.70;99.90;;;;;;5102601;28;20027;-62
2022/12/30 01:24:44;;;;;;;8.60;3.35;;;2.70;99.90;;;;;;5101870;28;20063;-62
2022/12/30 01:27:12;;;;;;;7.88;2.58;;;2.80;99.90;;;;;;5097032;28;20035;-62
2022/12/30 01:29:39;;;;;;;;;;;2.80;99.90;;;;;;5111413;28;20055;-62
2022/12/30 01:32:08;;;;;;;6.18;2.85;;;2.80;99.90;;;;;;5101112;28;20384;-63
2022/12/30 01:34:36;;;;;;;5.60;2.72;;;2.90;99.90;;;;;;5095294;28;20052;-63
2022/12/30 01:37:03;;;;;;;;;;;2.90;99.90;;;;;;5097948;28;20133;-62
2022/12/30 01:39:30;;;;;;;9.57;3.53;;;2.90;99.90;;;;;;5117816;28;19924;-62
2022/12/30 01:41:57;;;;;;;10.65;5.00;;;2.90;99.90;;;;;;5105312;28;20100;-62
2022/12/30 01:44:48;;;;;;;16.10;5.85;;;2.80;99.90;;;;;;5105468;28;20036;-62
2022/12/30 01:47:23;;;;;;;15.52;5.97;;;2.80;99.90;;;;;;5109640;28;20035;-63
2022/12/30 01:49:53;;;;;;;13.45;6.03;;;2.80;99.90;;;;;;5109507;27;20052;-63
2022/12/30 01:52:24;;;;;;;13.45;6.22;;;2.70;99.90;;;;;;5104847;27;20581;-63
2022/12/30 01:54:56;;;;;;;12.98;5.88;;;2.70;99.90;;;;;;5107529;28;20052;-63
2022/12/30 01:57:24;;;;;;;14.70;6.45;;;2.70;99.90;;;;;;5107713;28;20060;-62
2022/12/30 01:59:51;;;;;;;13.60;6.57;;;2.60;99.90;;;;;;5108116;27;20085;-62
2022/12/30 02:02:18;;;;;;;14.35;6.90;;;2.60;99.90;;;;;;5105709;28;20058;-62
2022/12/30 02:04:45;;;;;;;13.18;5.72;;;2.50;99.90;;;;;;5108578;28;20039;-62
2022/12/30 02:07:24;;;;;;;12.82;6.38;;;2.50;99.90;;;;;;5114121;28;20035;-62
2022/12/30 02:09:52;;;;;;;15.60;6.18;;;2.50;99.90;;;;;;5111847;27;20040;-62
2022/12/30 02:12:19;;;;;;;16.73;6.70;;;2.50;99.90;;;;;;5106351;28;20048;-62
2022/12/30 02:14:47;;;;;;;14.77;5.80;;;2.50;99.90;;;;;;5113065;28;20065;-62
2022/12/30 02:17:33;;;;;;;17.02;5.38;;;2.40;99.90;;;;;;5111914;28;20478;-62
2022/12/30 02:20:37;;;;;;;10.38;4.97;;;2.30;99.90;;;;;;5111263;28;20093;-62
2022/12/30 02:23:46;;;;;;;12.23;4.55;;;2.20;99.90;;;;;;5112563;28;20489;-62
2022/12/30 02:26:43;;;;;;;11.05;5.28;;;2.10;99.90;;;;;;5095079;28;20059;-62
2022/12/30 02:29:51;;;;;;;14.73;5.32;;;2.00;99.90;;;;;;5106749;27;20036;-62
2022/12/30 02:32:18;;;;;;;9.98;4.47;;;2.00;99.90;;;;;;5109255;28;20055;-62
2022/12/30 02:35:07;;;;;;;7.35;4.07;;;2.00;99.90;;;;;;5101483;28;20052;-62
2022/12/30 02:37:54;;;;;;;12.02;5.13;;;2.10;99.90;;;;;;5112660;28;20080;-62
2022/12/30 02:46:33;;;;;;;12.48;5.82;;;2.20;99.90;;;;;;5105770;28;20397;-62
2022/12/30 02:49:02;;;;;;;15.57;6.53;;;2.20;99.90;;;;;;5103229;28;20569;-62
2022/12/30 02:54:15;;;;;;;18.27;6.45;;;2.20;99.90;;;;;;5102323;28;20094;-62
2022/12/30 02:56:50;;;;;;;12.55;6.10;;;2.30;99.90;;;;;;5099004;28;20104;-62
2022/12/30 03:05:37;;;;;;;13.15;6.25;;;2.40;99.90;;;;;;5085520;28;20068;-68
2022/12/30 03:08:23;;;;;;;18.80;6.57;;;2.30;99.90;;;;;;5079944;28;20098;-68
2022/12/30 03:11:17;;;;;;;17.40;6.75;;;2.20;99.90;;;;;;5086481;28;20553;-68
2022/12/30 03:13:59;;;;;;;13.52;6.15;;;2.30;99.90;;;;;;5090873;28;20093;-68
2022/12/30 03:16:42;;;;;;;15.63;6.63;;;2.40;99.90;;;;;;5093386;28;20059;-68
2022/12/30 03:19:32;;;;;;;12.63;6.35;;;2.40;99.90;;;;;;5092586;28;20108;-68
2022/12/30 03:22:00;;;;;;;13.82;5.85;;;2.50;99.90;;;;;;5091799;28;20040;-68
2022/12/30 03:27:17;;;;;;;;;;;2.50;99.90;;;;;;5093533;28;20565;-68
2022/12/30 03:29:49;;;;;;;;;;;2.50;99.90;;;;;;5092849;28;19924;-68
2022/12/30 03:32:17;;;;;;;13.55;5.57;;;2.50;99.90;;;;;;5084772;28;19973;-68
2022/12/30 03:34:46;;;;;;;11.15;4.93;;;2.60;99.90;;;;;;5093088;28;20052;-68
2022/12/30 03:37:18;;;;;;;7.97;3.35;;;2.70;99.90;;;;;;5091574;28;20123;-68
2022/12/30 03:39:54;;;;;;;11.48;5.03;;;3.00;99.90;;;;;;5092320;28;20106;-68
2022/12/30 03:42:22;;;;;;;8.65;4.43;;;3.20;99.90;;;;;;5092764;28;20036;-68
2022/12/30 03:44:50;;;;;;;9.48;4.82;;;3.10;99.90;;;;;;5092009;28;20086;-68
2022/12/30 03:47:18;;;;;;;10.20;4.85;;;3.10;99.90;;;;;;5101371;28;20040;-68
2022/12/30 03:49:45;;;;;;;8.43;4.75;;;3.10;99.90;;;;;;5111021;28;20513;-68
2022/12/30 03:52:14;;;;;;;8.27;4.35;;;3.10;99.90;;;;;;5108198;28;20066;-68
2022/12/30 03:54:42;;;;;;;11.00;4.47;;;3.10;99.90;;;;;;5092614;28;20044;-68
2022/12/30 03:57:09;;;;;;;7.35;4.15;;;3.10;99.90;;;;;;5092159;28;20036;-68
2022/12/30 03:59:35;;;;;;;9.40;3.53;;;3.10;99.90;;;;;;5092754;28;20032;-68
2022/12/30 04:02:02;;;;;;;8.90;4.40;;;3.20;99.90;;;;;;5093443;28;20487;-68
2022/12/30 04:04:29;;;;;;;9.95;4.18;;;3.30;99.90;;;;;;5094359;28;20044;-68
2022/12/30 04:06:56;;;;;;;6.45;4.15;;;3.30;99.90;;;;;;5092580;28;20044;-68
2022/12/30 04:09:23;;;;;;;8.90;4.28;;;3.30;99.90;;;;;;5092457;28;20043;-68
2022/12/30 04:11:50;;;;;;;8.05;4.63;;;3.40;99.90;;;;;;5092093;28;20048;-68
2022/12/30 04:14:17;;;;;;;7.32;3.95;;;3.40;99.90;;;;;;5104577;28;20078;-68
2022/12/30 04:16:44;;;;;;;8.30;5.00;;;3.50;99.90;;;;;;5091902;28;20105;-68
2022/12/30 04:19:10;;;;;;;6.40;3.03;;;3.40;99.90;;;;;;5090898;28;20036;-68
2022/12/30 04:21:37;;;;;;;8.52;4.63;;;3.30;99.90;;;;;;5091944;28;20044;-68
2022/12/30 04:24:04;;;;;;;8.45;3.15;;;3.30;99.90;;;;;;5091806;28;20073;-68
2022/12/30 04:26:31;;;;;;;7.07;3.30;;;3.30;99.90;;;;;;5092092;28;20045;-68
2022/12/30 04:28:59;;;;;;;5.72;3.10;;;3.30;99.90;;;;;;5099339;28;20164;-67
2022/12/30 04:31:25;;;;;;;6.25;2.85;;;3.40;99.90;;;;;;5100775;28;20044;-68
2022/12/30 04:33:53;;;;;;;7.88;2.92;;;3.50;99.90;;;;;;5090032;28;20108;-68
2022/12/30 04:36:20;;;;;;;;;;;3.50;99.90;;;;;;5090936;28;20089;-68
2022/12/30 04:38:47;;;;;;;9.43;2.95;;;3.50;99.90;;;;;;5091647;28;19919;-68
2022/12/30 04:41:14;;;;;;;3.55;2.20;;;3.50;99.90;;;;;;5090634;28;20101;-68
2022/12/30 04:43:41;;;;;;;5.05;2.22;;;3.60;99.90;;;;;;5091945;28;20070;-68
2022/12/30 04:46:07;;;;;;;4.63;2.20;;;3.60;99.90;;;;;;5098969;28;20487;-68
2022/12/30 04:48:34;;;;;;;4.32;2.33;;;3.60;99.90;;;;;;5100643;28;20036;-67
2022/12/30 04:51:01;;;;;;;3.47;1.73;;;3.70;99.90;;;;;;5091644;28;20500;-68
2022/12/30 04:53:27;;;;;;;2.85;1.80;;;3.70;99.90;;;;;;5091219;28;20055;-68
2022/12/30 04:55:55;;;;;;;3.67;1.77;;;3.80;99.90;;;;;;5091180;28;20117;-68
2022/12/30 04:58:23;;;;;;;4.50;1.90;;;3.90;99.90;;;;;;5100184;28;20070;-68
2022/12/30 05:00:51;;;;;;;4.63;1.88;;;3.90;99.90;;;;;;5100423;28;20504;-68
2022/12/30 05:03:19;;;;;;;6.60;2.17;;;4.00;99.90;;;;;;5090155;28;20063;-68
2022/12/30 05:05:46;;;;;;;3.88;1.73;;;4.00;99.90;;;;;;5090504;28;20523;-68
2022/12/30 05:08:13;;;;;;;;;;;4.00;99.90;;;;;;5090757;28;20066;-68
2022/12/30 05:10:40;;;;;;;7.95;2.10;;;4.00;99.90;;;;;;5090471;28;19973;-68
2022/12/30 05:13:07;;;;;;;3.33;1.88;;;4.00;99.90;;;;;;5102311;28;20074;-68
2022/12/30 05:15:34;;;;;;;7.05;2.42;;;4.00;99.90;;;;;;5100689;28;20048;-68
2022/12/30 05:18:01;;;;;;;2.92;2.00;;;4.00;99.90;;;;;;5091187;28;20044;-68
2022/12/30 05:20:27;;;;;;;2.42;1.85;;;3.90;99.90;;;;;;5090835;28;20044;-68
2022/12/30 05:22:54;;;;;;;2.83;1.85;;;3.90;99.90;;;;;;5091065;28;20044;-68
2022/12/30 05:28:06;;;;;;;4.15;2.30;;;4.00;99.90;;;;;;5090846;28;20062;-67
2022/12/30 05:30:33;;;;;;;3.58;1.80;;;4.10;99.90;;;;;;5090974;28;20438;-67
2022/12/30 05:33:00;;;;;;;2.92;1.80;;;4.20;99.90;;;;;;5092555;28;20066;-67
2022/12/30 05:35:26;;;;;;;4.07;1.70;;;4.20;99.90;;;;;;5093594;28;20089;-67
2022/12/30 05:37:53;;;;;;;3.00;2.00;;;4.30;99.90;;;;;;5091160;28;20097;-67
2022/12/30 05:40:20;;;;;;;4.18;2.15;;;4.30;99.90;;;;;;5086678;28;20081;-68
2022/12/30 05:42:47;;;;;;;3.00;2.00;;;4.30;99.90;;;;;;5089060;28;20081;-67
2022/12/30 05:45:13;;;;;;;5.63;2.03;;;4.20;99.90;;;;;;5088473;28;20032;-67
2022/12/30 05:47:40;;;;;;;3.72;1.90;;;4.20;99.90;;;;;;5090891;28;20070;-67
2022/12/30 05:50:07;;;;;;;3.63;2.17;;;4.20;99.90;;;;;;5089322;28;20503;-68
2022/12/30 05:52:34;;;;;;;4.13;2.08;;;4.30;99.90;;;;;;5090905;28;20036;-68
2022/12/30 05:55:01;;;;;;;4.13;1.90;;;4.40;99.90;;;;;;5090068;28;20048;-68
2022/12/30 05:57:27;;;;;;;4.78;2.05;;;4.30;99.90;;;;;;5089592;28;20500;-68
2022/12/30 05:59:54;;;;;;;3.85;1.90;;;4.40;99.90;;;;;;5089433;28;20075;-68
2022/12/30 06:02:21;;;;;;;4.22;2.05;;;4.40;99.90;;;;;;5089385;28;20052;-68
2022/12/30 06:04:48;;;;;;;4.75;2.42;;;4.40;99.90;;;;;;5090343;28;20044;-68
2022/12/30 06:07:14;;;;;;;4.00;2.25;;;4.40;99.90;;;;;;5087989;28;20036;-68
2022/12/30 06:09:41;;;;;;;4.07;2.42;;;4.40;99.90;;;;;;5089349;28;20076;-68
2022/12/30 06:12:08;;;;;;;4.68;2.15;;;4.40;99.90;;;;;;5073353;28;20041;-68
2022/12/30 06:14:35;;;;;;;4.65;2.67;;;4.30;99.90;;;;;;5072862;28;20048;-68
2022/12/30 06:17:01;;;;;;;8.30;3.22;;;4.30;99.90;;;;;;5085981;28;20044;-68
2022/12/30 06:19:28;;;;;;;6.18;2.92;;;4.20;99.90;;;;;;5106530;28;20035;-68
2022/12/30 06:21:55;;;;;;;4.30;2.50;;;4.20;99.90;;;;;;5110419;28;20040;-68
2022/12/30 06:24:21;;;;;;;4.55;2.72;;;4.20;99.90;;;;;;5112221;28;20035;-68
2022/12/30 06:26:48;;;;;;;3.50;2.15;;;4.10;99.90;;;;;;5101656;28;20625;-68
2022/12/30 06:29:15;;;;;;;4.53;1.88;;;4.00;99.90;;;;;;5094646;28;20054;-68
2022/12/30 06:31:42;;;;;;;5.32;2.60;;;4.00;99.90;;;;;;5094007;28;20094;-68
2022/12/30 06:34:08;;;;;;;4.30;1.80;;;4.00;99.90;;;;;;5094947;28;20040;-67
2022/12/30 06:36:35;;;;;;;7.95;4.28;;;3.90;99.90;;;;;;5101356;28;20096;-68
2022/12/30 06:39:02;;;;;;;7.97;4.57;;;3.90;99.90;;;;;;5101760;28;20104;-68
2022/12/30 06:41:29;;;;;;;9.60;4.40;;;3.80;99.90;;;;;;5077231;28;20111;-68
2022/12/30 06:43:55;;;;;;;9.20;3.80;;;3.70;99.90;;;;;;5073828;28;20105;-68
2022/12/30 06:46:22;;;;;;;7.65;4.10;;;3.60;99.90;;;;;;5094370;28;20036;-68
2022/12/30 06:48:49;;;;;;;7.13;3.83;;;3.50;99.90;;;;;;5093352;28;20055;-68
2022/12/30 06:51:16;;;;;;;9.85;6.68;;;3.40;99.90;;;;;;5094363;28;20069;-68
2022/12/30 06:53:43;;;;;;;10.63;5.28;;;3.40;99.90;;;;;;5101307;28;20113;-68
2022/12/30 06:56:09;;;;;;;15.25;7.32;;;3.40;99.90;;;;;;5102423;28;20225;-68
2022/12/30 06:58:36;;;;;;;12.32;6.63;;;3.40;99.90;;;;;;5094224;28;20051;-67
2022/12/30 07:01:03;;;;;;;18.83;9.48;;;3.40;99.90;;;;;;5093776;28;20089;-68
2022/12/30 07:03:30;;;;;;;18.92;9.80;;;3.50;99.90;;;;;;5092124;28;20109;-68
2022/12/30 07:05:57;;;;;;;8.88;4.60;;;3.50;99.90;;;;;;5093831;28;20181;-68
2022/12/30 07:08:23;;;;;;;10.27;5.47;;;3.40;99.90;;;;;;5085791;28;20094;-68
2022/12/30 07:10:50;;;;;;;11.40;4.68;;;3.30;99.90;;;;;;5090072;28;20098;-68
2022/12/30 07:13:18;;;;;;;20.60;8.73;;;3.30;99.90;;;;;;5092166;28;20052;-68
2022/12/30 07:15:44;;;;;;;12.13;6.13;;;3.30;99.90;;;;;;5093283;28;20412;-68
2022/12/30 07:18:11;;;;;;;12.73;5.45;;;3.30;99.90;;;;;;5092917;28;20032;-68
2022/12/30 07:20:38;;;;;;;9.35;4.82;;;3.40;99.90;;;;;;5102225;28;20079;-68
2022/12/30 07:23:05;;;;;;;13.90;5.60;;;3.40;99.90;;;;;;5055394;28;20040;-68
2022/12/30 07:25:32;;;;;;;15.88;6.45;;;3.50;99.90;;;;;;5079455;28;20101;-68
2022/12/30 07:28:03;;;;;;;11.60;5.10;;;3.50;99.90;;;;;;5093383;28;20040;-68
2022/12/30 07:30:31;;;;;;;8.63;4.30;;;3.60;99.90;;;;;;5092737;28;20236;-68
2022/12/30 07:32:57;;;;;;;10.65;3.92;;;3.70;99.90;;;;;;5093131;28;20052;-68
2022/12/30 07:35:24;;;;;;;9.85;4.70;;;3.70;99.90;;;;;;5092131;28;20465;-68
2022/12/30 07:37:51;;;;;;;6.50;3.75;;;3.80;99.90;;;;;;5103387;28;20040;-68
2022/12/30 07:40:18;;;;;;;7.15;3.67;;;3.90;99.90;;;;;;5113649;28;20054;-68
2022/12/30 07:42:45;;;;;;;11.63;5.15;;;3.90;99.90;;;;;;5084856;28;20040;-68
2022/12/30 07:45:17;;;;;;;14.95;7.80;;;3.90;99.90;;;;;;5075086;28;20409;-68
2022/12/30 07:47:43;;;;;;;7.28;4.65;;;4.00;99.90;;;;;;5093301;28;20139;-68
2022/12/30 07:50:11;;;;;;;8.18;4.63;;;4.10;99.90;;;;;;5100520;28;20039;-68
2022/12/30 07:52:38;;;;;;;12.00;6.32;;;4.30;99.90;;;;;;5109392;28;20052;-68
2022/12/30 07:55:06;;;;;;;16.50;8.77;;;4.40;99.90;;;;;;5113552;28;20457;-68
2022/12/30 07:57:33;;;;;;;14.23;8.05;;;4.50;99.90;;;;;;5110471;28;20044;-68
2022/12/30 07:59:59;;;;;;;10.98;5.78;;;4.60;99.90;;;;;;5104070;28;20101;-68
2022/12/30 08:02:26;;;;;;;9.85;4.95;;;4.60;99.90;;;;;;5081778;28;20089;-68
2022/12/30 08:04:53;;;;;;;11.55;5.68;;;4.50;99.90;;;;;;5085903;28;20500;-68
2022/12/30 08:07:20;;;;;;;16.52;8.07;;;4.50;99.90;;;;;;5077395;28;20414;-68
2022/12/30 08:09:47;;;;;;;14.15;7.55;;;4.40;99.90;;;;;;5083104;28;20047;-68
2022/12/30 08:12:14;;;;;;;11.18;5.70;;;4.30;99.90;;;;;;5078518;28;20051;-68
2022/12/30 08:14:40;;;;;;;6.88;4.07;;;4.30;99.90;;;;;;5077925;28;20048;-68
2022/12/30 08:17:07;;;;;;;10.27;3.92;;;4.30;99.90;;;;;;5072274;28;20098;-68
2022/12/30 08:19:34;;;;;;;7.57;3.47;;;4.40;99.90;;;;;;5090064;28;20448;-68
2022/12/30 08:22:00;;;;;;;8.80;4.40;;;4.40;99.90;;;;;;5085153;28;20040;-68
2022/12/30 08:24:27;;;;;;;7.88;4.20;;;4.40;99.90;;;;;;5091911;28;20040;-68
2022/12/30 08:26:54;;;;;;;7.63;4.53;;;4.40;99.90;;;;;;5089078;28;20462;-68
2022/12/30 08:29:21;;;;;;;6.72;3.75;;;4.40;99.90;;;;;;5081737;28;20105;-68
2022/12/30 08:31:49;;;;;;;5.90;3.55;;;4.30;99.90;;;;;;5086664;28;20089;-68
2022/12/30 08:34:20;;;;;;;8.02;4.13;;;4.40;99.90;;;;;;5084810;28;20446;-68
2022/12/30 08:36:47;;;;;;;8.18;4.40;;;4.40;99.90;;;;;;5089273;28;20048;-68
2022/12/30 08:39:14;;;;;;;11.02;4.38;;;4.20;99.90;;;;;;5091569;28;20130;-67
2022/12/30 08:41:43;;;;;;;9.60;4.43;;;4.10;99.90;;;;;;5090872;28;20082;-68
2022/12/30 08:44:16;;;;;;;8.10;4.40;;;4.00;99.90;;;;;;5091745;28;20051;-67
2022/12/30 08:46:43;;;;;;;11.30;4.60;;;3.90;99.90;;;;;;5099178;28;20043;-68
2022/12/30 08:49:11;;;;;;;11.82;5.10;;;4.00;99.90;;;;;;5104113;28;20519;-68
2022/12/30 08:51:38;;;;;;;10.77;4.72;;;4.10;99.90;;;;;;5111910;28;20044;-68
2022/12/30 08:54:06;;;;;;;;;;;4.10;99.90;;;;;;5112393;28;20043;-68
2022/12/30 08:56:34;;;;;;;25.92;8.68;;;4.10;99.90;;;;;;5090121;28;19969;-68
2022/12/30 08:59:02;;;;;;;9.55;4.32;;;4.10;99.90;;;;;;5091309;28;20044;-68
2022/12/30 09:01:36;;;;;;;8.93;3.90;;;4.20;99.90;;;;;;5086466;28;20040;-68
2022/12/30 09:04:06;;;;;;;11.70;4.85;;;4.20;99.90;;;;;;5090257;28;20046;-67
2022/12/30 09:06:35;;;;;;;10.68;5.10;;;4.00;99.90;;;;;;5090376;28;20044;-68
2022/12/30 09:09:04;;;;;;;8.50;4.43;;;4.00;99.90;;;;;;5088593;28;20032;-67
2022/12/30 09:11:33;;;;;;;9.10;4.53;;;4.10;99.90;;;;;;5090880;28;20097;-68
2022/12/30 09:14:03;;;;;;;13.88;5.32;;;4.20;99.90;;;;;;5090517;28;20044;-68
2022/12/30 09:16:30;;;;;;;7.32;3.90;;;4.30;99.90;;;;;;5102748;22;20544;-61
2022/12/30 09:18:58;;;;;;;9.07;4.45;;;4.50;99.90;;;;;;5090457;28;20040;-61
2022/12/30 09:21:25;;;;;;;;;;;4.70;99.90;;;;;;5090300;28;20087;-61
2022/12/30 09:23:52;;;;;;;7.63;3.92;;;4.80;99.90;;;;;;5089771;28;19920;-61
2022/12/30 09:26:22;;;;;;;9.20;3.65;;;4.90;99.90;;;;;;5084474;28;20060;-61
2022/12/30 09:28:49;;;;;;;6.50;3.83;;;5.10;99.90;;;;;;5090933;28;20043;-62
2022/12/30 09:31:17;;;;;;;8.30;4.10;;;5.20;99.90;;;;;;5089923;28;20510;-61
2022/12/30 09:33:43;;;;;;;;;;;5.30;99.90;;;;;;5090010;28;20050;-61
2022/12/30 09:36:10;;;;;;;8.48;4.45;;;5.40;99.90;;;;;;5083704;28;20330;-63
2022/12/30 09:38:37;;;;;;;8.93;4.18;;;5.50;99.90;;;;;;5091042;28;20482;-62
2022/12/30 09:44:49;;;;;;;8.13;4.43;;;5.80;99.90;;;;;;5083575;28;20044;-62
2022/12/30 09:47:30;;;;;;;6.63;3.30;;;6.10;99.90;;;;;;5021056;28;20385;-62
2022/12/30 09:50:14;;;;;;;6.35;3.38;;;6.20;99.90;;;;;;5072882;28;20048;-62
2022/12/30 09:52:51;;;;;;;5.25;3.05;;;6.30;99.90;;;;;;5089930;28;20040;-62
2022/12/30 09:55:23;;;;;;;6.38;3.88;;;6.40;99.90;;;;;;5044314;28;20485;-62
2022/12/30 09:57:54;;;;;;;7.45;4.10;;;6.20;99.90;;;;;;5070715;28;20052;-62
2022/12/30 10:00:22;;;;;;;8.23;3.67;;;6.20;99.90;;;;;;5074408;28;20066;-61
2022/12/30 10:03:02;;;;;;;9.55;4.63;;;6.20;99.90;;;;;;5076876;28;20082;-62
2022/12/30 10:06:13;;;;;;;9.45;4.03;;;6.30;99.90;;;;;;5094633;28;20047;-61
2022/12/30 10:08:46;;;;;;;6.88;3.92;;;6.30;99.90;;;;;;5089101;28;20040;-62
2022/12/30 10:11:42;;;;;;;6.38;3.75;;;6.40;99.90;;;;;;5094038;28;20070;-62
2022/12/30 10:14:35;;;;;;;6.60;3.50;;;6.40;99.90;;;;;;5050872;28;20496;-62
2022/12/30 10:17:50;;;;;;;5.43;3.97;;;6.50;99.90;;;;;;5087866;28;20106;-62
2022/12/30 10:20:35;;;;;;;6.10;3.33;;;6.50;99.90;;;;;;5009063;28;20052;-62
2022/12/30 10:23:31;;;;;;;7.78;3.53;;;6.60;99.90;;;;;;5093469;28;20497;-62
2022/12/30 10:26:13;;;;;;;5.38;3.10;;;6.70;99.90;;;;;;5093517;28;20097;-62
2022/12/30 10:28:51;;;;;;;8.35;3.53;;;6.70;99.90;;;;;;5093833;28;20047;-62
2022/12/30 10:31:23;;;;;;;7.00;3.80;;;6.80;99.90;;;;;;5094356;28;20466;-62
2022/12/30 10:33:54;;;;;;;6.22;3.55;;;6.80;99.90;;;;;;5092647;28;20462;-62
2022/12/30 10:36:27;;;;;;;7.35;3.42;;;6.90;99.90;;;;;;5062296;28;20044;-62
2022/12/30 10:39:14;;;;;;;5.95;3.17;;;6.90;99.90;;;;;;5074239;28;20057;-62
2022/12/30 10:42:02;;;;;;;8.80;3.50;;;6.90;99.90;;;;;;5090317;28;20044;-62
2022/12/30 10:44:51;;;;;;;11.57;3.70;;;6.90;99.90;;;;;;5093812;28;20434;-62
2022/12/30 10:48:05;;;;;;;7.45;3.38;;;7.00;99.90;;;;;;5094284;28;20040;-62
2022/12/30 10:50:41;;;;;;;5.28;3.10;;;7.00;99.90;;;;;;5090143;28;20093;-62
2022/12/30 10:53:16;;;;;;;7.53;3.20;;;7.10;99.90;;;;;;5073633;28;20501;-62
2022/12/30 10:56:03;;;;;;;5.22;3.10;;;7.20;99.90;;;;;;5073617;28;20036;-62
2022/12/30 10:58:41;;;;;;;5.97;2.70;;;7.20;99.90;;;;;;5089029;28;20090;-62
2022/12/30 11:01:16;;;;;;;5.97;2.33;;;7.10;99.90;;;;;;5093780;28;20036;-62
2022/12/30 11:03:48;;;;;;;5.60;3.00;;;7.10;99.90;;;;;;5092687;28;20051;-62
2022/12/30 11:06:24;;;;;;;4.63;2.30;;;7.00;99.90;;;;;;5086805;28;20097;-62
2022/12/30 11:08:53;;;;;;;4.68;3.08;;;7.00;99.90;;;;;;5093076;28;20190;-62
2022/12/30 11:14:42;;;;;;;4.78;2.88;;;7.00;99.90;;;;;;5092842;28;20056;-62
2022/12/30 11:14:42;;;;;;;4.13;2.72;;;7.00;99.90;;;;;;5092499;28;20119;-62
2022/12/30 11:17:15;;;;;;;8.00;2.88;;;7.10;99.90;;;;;;5093383;28;20044;-62
2022/12/30 11:20:01;;;;;;;8.27;2.60;;;7.10;99.90;;;;;;5086374;28;20040;-62
2022/12/30 11:22:28;;;;;;;5.88;2.75;;;7.20;99.90;;;;;;5087461;28;20446;-62
2022/12/30 11:24:57;;;;;;;8.23;3.72;;;7.20;99.90;;;;;;5091998;28;20105;-62
2022/12/30 11:27:47;;;;;;;9.70;4.38;;;7.30;99.90;;;;;;5093008;28;20097;-62
2022/12/30 11:30:29;;;;;;;18.27;6.30;;;7.50;99.90;;;;;;5090013;28;20040;-62
2022/12/30 11:32:59;;;;;;;16.42;5.78;;;7.50;99.90;;;;;;5092933;28;20090;-62
2022/12/30 11:35:38;;;;;;;24.23;9.07;;;7.50;99.90;;;;;;5093264;28;20052;-62
2022/12/30 11:38:33;;;;;;;13.43;5.57;;;7.50;99.90;;;;;;5086382;28;20044;-62
2022/12/30 11:41:19;;;;;;;23.33;9.15;;;7.60;99.90;;;;;;5093137;28;20043;-62
2022/12/30 11:43:50;;;;;;;10.27;3.40;;;7.70;99.90;;;;;;5093041;28;20044;-63
2022/12/30 11:46:22;;;;;;;7.28;2.90;;;7.70;99.90;;;;;;5092740;28;20477;-63
2022/12/30 11:48:58;;;;;;;6.15;2.75;;;7.80;99.90;;;;;;5092557;28;20043;-63
2022/12/30 11:51:47;;;;;;;5.93;3.40;;;7.90;99.90;;;;;;5092562;28;20040;-63
2022/12/30 11:54:24;;;;;;;5.53;2.67;;;8.00;99.90;;;;;;5088933;28;20127;-62
2022/12/30 11:57:01;;;;;;;4.38;2.50;;;8.10;99.90;;;;;;5090914;28;20040;-61
2022/12/30 11:59:33;;;;;;;6.75;3.40;;;8.00;99.90;;;;;;5086365;28;20048;-63
2022/12/30 12:02:04;;;;;;;5.40;2.92;;;8.00;99.90;;;;;;5091541;28;20040;-62
2022/12/30 12:04:39;;;;;;;4.93;2.88;;;8.10;99.90;;;;;;5085971;28;20036;-62
2022/12/30 12:07:26;;;;;;;11.57;3.42;;;8.10;99.90;;;;;;5091058;28;20036;-62
2022/12/30 12:10:19;;;;;;;5.65;2.70;;;8.20;99.90;;;;;;5089536;28;20043;-63
2022/12/30 12:13:14;;;;;;;4.03;2.00;;;8.20;99.90;;;;;;5086346;28;20047;-63
2022/12/30 12:15:45;;;;;;;6.93;3.00;;;8.20;99.90;;;;;;5057460;28;20089;-62
2022/12/30 12:18:39;;;;;;;9.27;3.95;;;8.30;99.90;;;;;;5092179;28;20063;-62
2022/12/30 12:21:24;;;;;;;8.15;2.75;;;8.30;99.90;;;;;;5085582;28;20040;-63
2022/12/30 12:24:02;;;;;;;5.63;3.00;;;8.30;99.90;;;;;;5089143;28;20124;-62
2022/12/30 12:26:38;;;;;;;6.88;3.15;;;8.40;99.90;;;;;;5090513;28;20040;-63
2022/12/30 12:29:05;;;;;;;5.78;2.88;;;8.50;99.90;;;;;;5090860;28;20036;-63
2022/12/30 12:32:10;;;;;;;6.25;2.47;;;8.60;99.90;;;;;;5090992;28;20044;-63
2022/12/30 12:35:17;;;;;;;3.97;2.55;;;8.60;99.90;;;;;;5009405;28;20060;-62
2022/12/30 12:38:05;;;;;;;5.47;2.50;;;8.70;99.90;;;;;;5007470;28;20060;-62
2022/12/30 12:40:52;;;;;;;3.70;2.20;;;8.80;99.90;;;;;;5082612;28;20052;-62
2022/12/30 12:43:45;;;;;;;3.40;2.35;;;8.80;99.90;;;;;;5090973;28;20043;-63
2022/12/30 12:46:45;;;;;;;3.63;2.25;;;8.80;99.90;;;;;;5091306;28;20036;-62
2022/12/30 12:49:37;;;;;;;6.65;2.30;;;8.80;99.90;;;;;;5090119;28;20047;-63
2022/12/30 12:52:37;;;;;;;5.47;2.42;;;8.80;99.90;;;;;;5090891;28;20040;-63
2022/12/30 12:55:31;;;;;;;4.88;1.80;;;8.90;99.90;;;;;;5088960;28;20043;-62
2022/12/30 12:58:13;;;;;;;4.15;1.95;;;8.80;99.90;;;;;;5091541;28;20042;-60
2022/12/30 13:01:11;;;;;;;3.72;1.60;;;8.80;99.90;;;;;;5091971;28;20047;-63
2022/12/30 13:04:02;;;;;;;5.18;2.35;;;8.80;99.90;;;;;;5087882;28;20115;-60
2022/12/30 13:07:06;;;;;;;4.63;2.00;;;8.80;99.90;;;;;;5091495;28;20036;-63
2022/12/30 13:10:02;;;;;;;6.72;2.03;;;8.90;99.90;;;;;;5072399;28;20060;-61
2022/12/30 13:12:54;;;;;;;2.92;1.77;;;8.90;99.90;;;;;;5086212;28;20047;-64
2022/12/30 13:15:35;;;;;;;4.05;2.08;;;8.80;99.90;;;;;;5088896;28;20051;-63
2022/12/30 13:18:08;;;;;;;2.72;1.80;;;8.80;99.90;;;;;;5088787;28;20459;-63
2022/12/30 13:20:48;;;;;;;3.50;2.08;;;8.70;99.90;;;;;;5086583;28;20044;-64
2022/12/30 13:23:19;;;;;;;4.05;2.22;;;8.70;99.90;;;;;;5087319;28;20044;-63
2022/12/30 13:25:53;;;;;;;7.55;2.38;;;8.70;99.90;;;;;;5091711;28;20070;-63
2022/12/30 13:28:24;;;;;;;5.22;2.15;;;8.70;99.90;;;;;;5091280;28;20048;-63
2022/12/30 13:31:16;;;;;;;4.18;2.15;;;8.80;99.90;;;;;;5088463;28;20516;-63
2022/12/30 13:33:55;;;;;;;4.93;2.55;;;8.80;99.90;;;;;;5090633;28;20040;-63
2022/12/30 13:36:43;;;;;;;5.10;1.90;;;8.80;99.90;;;;;;5091171;28;20044;-63
2022/12/30 13:39:19;;;;;;;6.57;2.17;;;8.80;99.90;;;;;;5090462;28;20479;-63
2022/12/30 13:42:26;;;;;;;3.80;2.10;;;8.80;99.90;;;;;;5084948;28;20465;-63
2022/12/30 13:44:54;;;;;;;9.00;2.40;;;8.80;99.90;;;;;;5091218;28;20048;-62
2022/12/30 13:47:27;;;;;;;8.35;2.38;;;8.80;99.90;;;;;;5072017;28;20121;-63
2022/12/30 13:49:57;;;;;;;3.28;2.22;;;8.70;99.90;;;;;;5091346;28;20064;-63
2022/12/30 13:52:27;;;;;;;6.35;3.22;;;8.70;99.90;;;;;;5086198;28;20059;-63
2022/12/30 13:54:57;;;;;;;6.40;2.08;;;8.70;99.90;;;;;;5090038;28;20037;-63
2022/12/30 13:57:35;;;;;;;4.28;2.28;;;8.70;99.90;;;;;;5090441;28;20047;-63
2022/12/30 14:00:34;;;;;;;4.82;3.42;;;8.60;99.90;;;;;;5089293;28;20059;-63
2022/12/30 14:03:01;;;;;;;4.82;2.63;;;8.60;99.90;;;;;;5081805;28;20079;-63
2022/12/30 14:05:38;;;;;;;5.65;3.08;;;8.50;99.90;;;;;;5087645;28;20040;-62
2022/12/30 14:08:26;;;;;;;5.18;2.78;;;8.50;99.90;;;;;;5089026;28;20411;-63
2022/12/30 14:10:53;;;;;;;5.10;2.90;;;8.40;99.90;;;;;;5088237;28;20419;-63
2022/12/30 14:13:23;;;;;;;;;;;8.40;99.90;;;;;;5098580;28;20093;-63
2022/12/30 14:15:58;;;;;;;5.28;2.53;;;8.30;99.90;;;;;;5097735;28;19920;-63
2022/12/30 14:19:00;;;;;;;5.63;2.53;;;8.30;99.90;;;;;;5083583;28;20415;-63
2022/12/30 14:21:47;;;;;;;5.55;2.97;;;8.20;99.90;;;;;;5085738;28;20040;-63
2022/12/30 14:24:37;;;;;;;4.43;2.03;;;8.20;99.90;;;;;;5087537;28;20522;-63
2022/12/30 14:27:53;;;;;;;4.63;2.63;;;8.20;99.90;;;;;;5080344;28;20734;-63